INFORMACIÓN METAR y TAF
METAR FOR VECC
ADDS - METARS form results

(1855 UTC 17 July 2018)
Data provider http://aviationweather.gov/adds/metars/
 
METAR text: VECC 171830Z 09004KT 3200 HZ FEW020 SCT100 28/27 Q0998 NOSIG
Conditions at: VECC (CALCUTTA/DUM DUM, IN) observed 1830 UTC 17 July 2018
Temperature: 28.0°C (82°F)
Dewpoint: 27.0°C (81°F) [RH = 94%]
Pressure (altimeter): 29.47 inches Hg (998.0 mb)
Winds: from the E (90 degrees) at 5 MPH (4 knots; 2.1 m/s)
Visibility: 1.99 miles (3.20 km)
Ceiling: at least 12,000 feet AGL
Clouds: few clouds at 2000 feet AGL
scattered clouds at 10000 feet AGL
Weather: HZ  (haze)

METAR text: VECC 171800Z 11004KT 3200 HZ FEW020 SCT100 28/27 Q0998 NOSIG
Conditions at: VECC (CALCUTTA/DUM DUM, IN) observed 1800 UTC 17 July 2018
Temperature: 28.0°C (82°F)
Dewpoint: 27.0°C (81°F) [RH = 94%]
Pressure (altimeter): 29.47 inches Hg (998.0 mb)
Winds: from the ESE (110 degrees) at 5 MPH (4 knots; 2.1 m/s)
Visibility: 1.99 miles (3.20 km)
Ceiling: at least 12,000 feet AGL
Clouds: few clouds at 2000 feet AGL
scattered clouds at 10000 feet AGL
Weather: HZ  (haze)

Forecast for: VECC (CALCUTTA/DUM DUM, IN)
Text: TAF VECC 171400Z 1715/1724 11007KT 3500 -RA HZ SCT018 SCT100
Forecast period: 1500 to 2100 UTC 17 July 2018
Forecast type: FROM: standard forecast or significant change
Winds: from the ESE (110 degrees) at 8 MPH (7 knots; 3.6 m/s)
Visibility: 2.17 miles (3.49 km)
Clouds: scattered clouds at 1800 feet AGL
scattered clouds at 10000 feet AGL
Weather: -RA HZ  (light rain, haze)
Text: BECMG 1721/1723 2600 -RA HZ
Forecast period: 2100 UTC 17 July 2018 to 0000 UTC 18 July 2018
Forecast type: BECOMING: Conditions expected to become as follows by 2300 UTC 17 July 2018
Winds: from the ESE (110 degrees) at 8 MPH (7 knots; 3.6 m/s)
Visibility: 1.62 miles (2.61 km)
Clouds: scattered clouds at 1800 feet AGL
scattered clouds at 10000 feet AGL
Weather: -RA HZ  (light rain, haze)

 MAPA DE AEROPUERTO

 INFORMACIÓN DE PISTA
Pista 01L Longitud 7871 ft Ancho 150 ft
Elevación 19 ft Umbral desplazado 0 ft Rumbo de pista 6
Pista 19R Longitud 7871 ft Ancho 150 ft
Elevación 19 ft Umbral desplazado 0 ft Rumbo de pista 186
Pista 01R Longitud 11900 ft Ancho 150 ft
Elevación 20 ft Umbral desplazado 0 ft Rumbo de pista 6
Pista 19L Longitud 11900 ft Ancho 150 ft
Elevación 19 ft Umbral desplazado 1390 ft Rumbo de pista 186

 FRECUANCIAS DEL AEROPUERTO
Tipo A/G Nombre KOLKATA RD Frecuencia 127.3 MHZ
Tipo ACC Nombre KOLKATA CO Frecuencia 119.3 MHZ
Tipo APP Nombre KOLKATA AP Frecuencia 127.9 MHZ
Tipo APP CONTRO Nombre KOLKATA CO Frecuencia 132.45 MHZ
Tipo ATIS Nombre ATIS Frecuencia 126.4 MHZ
Tipo GND Nombre KOLKATA GN Frecuencia 121.9 MHZ
Tipo RADAR Nombre Feeder ARE Frecuencia 127.3 MHZ
Tipo TWR Nombre KOLKATA TW Frecuencia 118.1 MHZ

 RADIO AYUDAS DEL AEROPUERTO
Tipo VOR-DME Nombre Kolkata Frecuencia 112500 KHZ
Tipo NDB Nombre Kolkata Frecuencia 385 KHZ



Powered by Virtual Airlines Manager [v2.6.2]